Time;durP1;ratioP1;P1;durP2;ratioP2;P2;SDS_P1;SDS_P2;PMS_P1;PMS_P2;Temp;Humidity;BMP_temperature;BMP_pressure;BME280_temperature;BME280_humidity;BME280_pressure;Samples;Min_cycle;Max_cycle;Signal;HPM_P1;HPM_P2
2021/11/22 00:01:55;;;;;;;1.77;1.20;;;;;;;;;;4547453;28;20037;-67
2021/11/22 00:04:06;;;;;;;1.40;1.23;;;;;;;;;;4548973;28;20042;-67
2021/11/22 00:06:16;;;;;;;1.93;1.20;;;;;;;;;;4545241;28;20040;-66
2021/11/22 00:08:26;;;;;;;2.00;1.50;;;;;;;;;;4547173;28;20505;-66
2021/11/22 00:10:37;;;;;;;1.87;1.27;;;;;;;;;;4547686;28;20059;-66
2021/11/22 00:12:47;;;;;;;2.00;1.40;;;;;;;;;;4547238;28;20382;-67
2021/11/22 00:14:58;;;;;;;1.70;1.40;;;;;;;;;;4544156;28;20052;-66
2021/11/22 00:17:08;;;;;;;2.13;1.53;;;;;;;;;;4547052;28;20030;-66
2021/11/22 00:19:19;;;;;;;2.23;1.50;;;;;;;;;;4545444;28;20478;-66
2021/11/22 00:21:29;;;;;;;2.50;1.60;;;;;;;;;;4544075;28;27074;-66
2021/11/22 00:23:40;;;;;;;1.30;1.20;;;;;;;;;;4545554;28;26264;-66
2021/11/22 00:25:50;;;;;;;2.30;1.50;;;;;;;;;;4544591;28;20029;-67
2021/11/22 00:28:01;;;;;;;1.20;1.10;;;;;;;;;;4547754;28;20108;-66
2021/11/22 00:30:21;;;;;;;2.22;1.33;;;;;;;;;;4533749;28;20160;-66
2021/11/22 00:32:44;;;;;;;2.60;1.80;;;;;;;;;;4532407;28;20128;-66
2021/11/22 00:35:14;;;;;;;1.88;1.50;;;;;;;;;;4544051;28;20063;-66
2021/11/22 00:37:31;;;;;;;2.15;1.70;;;;;;;;;;4547348;28;20078;-66
2021/11/22 00:39:42;;;;;;;2.33;1.65;;;;;;;;;;4544894;28;20024;-66
2021/11/22 00:41:53;;;;;;;2.27;1.50;;;;;;;;;;4546015;28;20037;-67
2021/11/22 00:44:03;;;;;;;2.73;1.23;;;;;;;;;;4562694;28;20032;-66
2021/11/22 00:46:14;;;;;;;1.30;1.20;;;;;;;;;;4547821;28;20410;-66
2021/11/22 00:48:24;;;;;;;2.43;1.50;;;;;;;;;;4545045;28;36032;-67
2021/11/22 00:50:35;;;;;;;1.53;1.30;;;;;;;;;;4548679;28;20028;-66
2021/11/22 00:52:45;;;;;;;2.10;1.40;;;;;;;;;;4545585;28;20819;-66
2021/11/22 00:54:56;;;;;;;2.27;1.60;;;;;;;;;;4544949;28;20045;-66
2021/11/22 00:57:07;;;;;;;1.50;1.40;;;;;;;;;;4555481;28;20024;-66
2021/11/22 00:59:17;;;;;;;2.37;1.63;;;;;;;;;;4545451;28;20036;-66
2021/11/22 01:01:27;;;;;;;1.60;1.37;;;;;;;;;;4532219;28;20052;-67
2021/11/22 01:03:38;;;;;;;2.47;1.50;;;;;;;;;;4544498;28;35934;-66
2021/11/22 01:05:48;;;;;;;2.10;1.50;;;;;;;;;;4543233;28;20068;-67
2021/11/22 01:08:00;;;;;;;2.00;1.43;;;;;;;;;;4548949;28;20454;-67
2021/11/22 01:10:12;;;;;;;1.75;1.33;;;;;;;;;;4537306;28;20025;-66
2021/11/22 01:12:27;;;;;;;2.30;1.30;;;;;;;;;;4546756;28;20626;-67
2021/11/22 01:14:38;;;;;;;2.08;1.52;;;;;;;;;;4544245;28;20032;-66
2021/11/22 01:16:48;;;;;;;2.67;1.70;;;;;;;;;;4543347;28;20053;-66
2021/11/22 01:19:00;;;;;;;1.87;1.30;;;;;;;;;;4546414;28;20073;-67
2021/11/22 01:21:11;;;;;;;2.63;1.30;;;;;;;;;;4547237;28;20071;-66
2021/11/22 01:23:21;;;;;;;1.53;1.20;;;;;;;;;;4547609;28;20140;-67
2021/11/22 01:25:32;;;;;;;2.20;1.30;;;;;;;;;;4545217;28;20068;-66
2021/11/22 01:27:43;;;;;;;2.35;1.45;;;;;;;;;;4545710;28;20048;-66
2021/11/22 01:29:53;;;;;;;1.33;1.03;;;;;;;;;;4544505;28;20489;-66
2021/11/22 01:32:04;;;;;;;1.30;1.20;;;;;;;;;;4546049;28;20078;-67
2021/11/22 01:34:15;;;;;;;1.73;1.30;;;;;;;;;;4546689;28;20028;-67
2021/11/22 01:36:25;;;;;;;2.23;1.53;;;;;;;;;;4546874;28;20079;-66
2021/11/22 01:38:36;;;;;;;1.77;1.30;;;;;;;;;;4545694;28;20025;-66
2021/11/22 01:40:46;;;;;;;2.70;1.30;;;;;;;;;;4543823;28;20050;-66
2021/11/22 01:42:57;;;;;;;2.63;1.50;;;;;;;;;;4542075;28;20029;-66
2021/11/22 01:45:11;;;;;;;2.23;1.40;;;;;;;;;;4544452;28;20055;-66
2021/11/22 01:47:21;;;;;;;2.88;1.50;;;;;;;;;;4545755;28;20513;-67
2021/11/22 01:49:32;;;;;;;2.03;1.50;;;;;;;;;;4546817;28;37481;-66
2021/11/22 01:51:42;;;;;;;3.10;1.53;;;;;;;;;;4545005;28;20028;-67
2021/11/22 01:53:53;;;;;;;2.27;1.50;;;;;;;;;;4547339;28;20037;-67
2021/11/22 01:56:04;;;;;;;2.33;1.50;;;;;;;;;;4544043;28;37169;-66
2021/11/22 01:58:15;;;;;;;2.00;1.42;;;;;;;;;;4545319;28;20033;-67
2021/11/22 02:00:31;;;;;;;2.27;1.67;;;;;;;;;;4547417;28;23658;-67
2021/11/22 02:02:41;;;;;;;3.00;1.70;;;;;;;;;;4545905;28;20060;-67
2021/11/22 02:04:51;;;;;;;3.17;1.80;;;;;;;;;;4544280;28;20119;-66
2021/11/22 02:07:02;;;;;;;3.33;1.80;;;;;;;;;;4546066;28;20423;-67
2021/11/22 02:09:13;;;;;;;3.47;2.10;;;;;;;;;;4547137;28;20115;-67
2021/11/22 02:11:24;;;;;;;2.38;1.73;;;;;;;;;;4547032;28;20029;-66
2021/11/22 02:13:34;;;;;;;2.43;1.63;;;;;;;;;;4547547;28;20036;-67
2021/11/22 02:15:46;;;;;;;1.90;1.63;;;;;;;;;;4543874;28;32772;-67
2021/11/22 02:17:56;;;;;;;2.30;1.70;;;;;;;;;;4547439;28;20037;-66
2021/11/22 02:20:11;;;;;;;2.10;1.70;;;;;;;;;;4546395;28;20032;-66
2021/11/22 02:22:21;;;;;;;2.80;1.67;;;;;;;;;;4546029;28;20042;-66
2021/11/22 02:24:32;;;;;;;2.93;1.87;;;;;;;;;;4544719;28;20033;-66
2021/11/22 02:26:42;;;;;;;2.80;1.70;;;;;;;;;;4545609;28;21788;-66
2021/11/22 02:28:54;;;;;;;1.90;1.50;;;;;;;;;;4543460;28;33114;-66
2021/11/22 02:31:05;;;;;;;2.83;1.88;;;;;;;;;;4545269;28;20028;-66
2021/11/22 02:33:18;;;;;;;2.08;1.80;;;;;;;;;;4544670;28;20040;-67
2021/11/22 02:35:30;;;;;;;1.60;1.45;;;;;;;;;;4544545;28;20136;-67
2021/11/22 02:37:41;;;;;;;3.63;1.83;;;;;;;;;;4543475;28;20642;-67
2021/11/22 02:39:51;;;;;;;2.70;1.80;;;;;;;;;;4542164;28;32240;-66
2021/11/22 02:42:03;;;;;;;2.50;1.77;;;;;;;;;;4544670;28;20040;-67
2021/11/22 02:44:13;;;;;;;2.58;1.83;;;;;;;;;;4544939;28;20036;-66
2021/11/22 02:46:24;;;;;;;2.70;1.83;;;;;;;;;;4543899;28;20045;-67
2021/11/22 02:48:35;;;;;;;3.53;1.90;;;;;;;;;;4543965;28;20037;-67
2021/11/22 02:50:45;;;;;;;2.20;1.67;;;;;;;;;;4546451;28;20385;-67
2021/11/22 02:52:56;;;;;;;3.17;1.93;;;;;;;;;;4545532;28;20040;-66
2021/11/22 02:55:08;;;;;;;2.22;1.60;;;;;;;;;;4543453;28;20029;-66
2021/11/22 02:57:18;;;;;;;2.53;1.60;;;;;;;;;;4543976;28;21027;-66
2021/11/22 02:59:29;;;;;;;2.57;1.70;;;;;;;;;;4540889;28;20033;-66
2021/11/22 03:01:41;;;;;;;;;;;;;;;;;;4545484;28;20044;-66
2021/11/22 03:03:54;;;;;;;2.30;1.90;;;;;;;;;;4545849;28;20517;-66
2021/11/22 03:06:11;;;;;;;2.38;1.60;;;;;;;;;;4542665;28;20036;-67
2021/11/22 03:08:21;;;;;;;2.88;1.90;;;;;;;;;;4544996;28;20040;-66
2021/11/22 03:10:32;;;;;;;2.40;1.73;;;;;;;;;;4512612;28;41311;-66
2021/11/22 03:12:43;;;;;;;2.27;1.77;;;;;;;;;;4542758;28;26743;-66
2021/11/22 03:14:54;;;;;;;3.00;1.80;;;;;;;;;;4545862;28;20536;-66
2021/11/22 03:17:04;;;;;;;2.63;1.70;;;;;;;;;;4544997;28;20036;-66
2021/11/22 03:19:15;;;;;;;2.53;1.93;;;;;;;;;;4544183;28;20037;-67
2021/11/22 03:21:25;;;;;;;3.33;1.90;;;;;;;;;;4543695;28;20087;-66
2021/11/22 03:23:37;;;;;;;2.27;1.83;;;;;;;;;;4544532;28;31370;-67
2021/11/22 03:25:48;;;;;;;2.63;1.70;;;;;;;;;;4546254;28;20028;-66
2021/11/22 03:27:59;;;;;;;1.87;1.60;;;;;;;;;;4526992;28;20434;-66
2021/11/22 03:30:12;;;;;;;2.43;1.73;;;;;;;;;;4545494;28;20037;-67
2021/11/22 03:32:22;;;;;;;2.35;1.70;;;;;;;;;;4546368;28;20734;-66
2021/11/22 03:34:33;;;;;;;3.00;1.80;;;;;;;;;;4544519;28;26135;-66
2021/11/22 03:36:43;;;;;;;1.97;1.60;;;;;;;;;;4546478;28;20040;-67
2021/11/22 03:38:54;;;;;;;2.27;1.87;;;;;;;;;;4545151;28;20068;-66
2021/11/22 03:41:11;;;;;;;2.27;1.87;;;;;;;;;;4553611;28;20072;-67
2021/11/22 03:45:42;;;;;;;2.80;1.70;;;;;;;;;;4542423;28;20047;-66
2021/11/22 03:47:53;;;;;;;4.20;1.98;;;;;;;;;;4544310;28;20029;-66
2021/11/22 03:50:04;;;;;;;3.10;1.60;;;;;;;;;;4543629;28;20565;-66
2021/11/22 03:52:14;;;;;;;2.22;1.52;;;;;;;;;;4541647;28;21216;-67
2021/11/22 03:54:25;;;;;;;2.87;1.53;;;;;;;;;;4542106;28;28081;-66
2021/11/22 03:56:36;;;;;;;1.97;1.60;;;;;;;;;;4541231;28;20032;-66
2021/11/22 03:58:47;;;;;;;2.03;1.60;;;;;;;;;;4545892;28;20043;-66
2021/11/22 04:00:57;;;;;;;1.70;1.27;;;;;;;;;;4543881;28;24587;-66
2021/11/22 04:03:08;;;;;;;2.20;1.50;;;;;;;;;;4542551;28;20036;-66
2021/11/22 04:05:18;;;;;;;2.20;1.30;;;;;;;;;;4536616;28;20037;-66
2021/11/22 04:07:29;;;;;;;1.57;1.47;;;;;;;;;;4542184;28;34236;-66
2021/11/22 04:09:39;;;;;;;1.45;1.23;;;;;;;;;;4542152;28;20048;-66
2021/11/22 04:11:50;;;;;;;1.40;1.30;;;;;;;;;;4543559;28;20112;-66
2021/11/22 04:14:02;;;;;;;1.53;1.30;;;;;;;;;;4544871;28;20124;-66
2021/11/22 04:16:13;;;;;;;1.55;1.30;;;;;;;;;;4547083;28;20041;-67
2021/11/22 04:18:23;;;;;;;1.30;1.20;;;;;;;;;;4545008;28;20041;-66
2021/11/22 04:20:34;;;;;;;1.43;1.13;;;;;;;;;;4548021;28;20036;-67
2021/11/22 04:22:45;;;;;;;1.40;1.30;;;;;;;;;;4548108;28;20017;-66
2021/11/22 04:24:55;;;;;;;1.73;1.10;;;;;;;;;;4546290;28;20045;-66
2021/11/22 04:27:09;;;;;;;1.43;1.13;;;;;;;;;;4545684;28;20091;-66
2021/11/22 04:29:19;;;;;;;1.63;1.25;;;;;;;;;;4547508;28;20025;-66
2021/11/22 04:31:30;;;;;;;1.63;1.40;;;;;;;;;;4545363;28;20477;-67
2021/11/22 04:33:40;;;;;;;1.67;1.20;;;;;;;;;;4546694;28;20041;-66
2021/11/22 04:35:51;;;;;;;1.90;1.10;;;;;;;;;;4547348;28;20598;-67
2021/11/22 04:38:02;;;;;;;1.13;1.03;;;;;;;;;;4546089;28;20033;-66
2021/11/22 04:40:16;;;;;;;1.10;1.00;;;;;;;;;;4543578;28;20072;-66
2021/11/22 04:42:28;;;;;;;1.95;0.93;;;;;;;;;;4546919;28;20037;-66
2021/11/22 04:44:38;;;;;;;2.17;1.20;;;;;;;;;;4544607;28;20505;-66
2021/11/22 04:46:48;;;;;;;1.30;1.00;;;;;;;;;;4531330;28;20032;-66
2021/11/22 04:48:59;;;;;;;1.00;0.90;;;;;;;;;;4547264;28;35594;-66
2021/11/22 04:51:09;;;;;;;1.30;0.90;;;;;;;;;;4544026;28;20033;-66
2021/11/22 04:53:20;;;;;;;1.47;1.00;;;;;;;;;;4545628;28;20685;-67
2021/11/22 04:55:32;;;;;;;1.40;1.10;;;;;;;;;;4545100;28;20033;-66
2021/11/22 04:57:43;;;;;;;1.00;0.90;;;;;;;;;;4546094;28;20119;-66
2021/11/22 04:59:53;;;;;;;1.98;1.05;;;;;;;;;;4544999;28;20032;-66
2021/11/22 05:02:04;;;;;;;1.47;1.00;;;;;;;;;;4546622;28;20040;-66
2021/11/22 05:04:14;;;;;;;1.33;1.05;;;;;;;;;;4546083;28;20191;-66
2021/11/22 05:06:25;;;;;;;0.80;0.80;;;;;;;;;;4545802;28;20033;-66
2021/11/22 05:08:36;;;;;;;1.10;0.90;;;;;;;;;;4545871;28;20090;-66
2021/11/22 05:10:46;;;;;;;0.80;0.80;;;;;;;;;;4544606;28;20598;-66
2021/11/22 05:12:57;;;;;;;1.23;0.97;;;;;;;;;;4546068;28;20037;-67
2021/11/22 05:15:07;;;;;;;1.47;1.07;;;;;;;;;;4546765;28;20058;-66
2021/11/22 05:17:18;;;;;;;2.07;0.90;;;;;;;;;;4548137;28;20068;-66
2021/11/22 05:19:30;;;;;;;2.83;1.20;;;;;;;;;;4531535;28;20112;-66
2021/11/22 05:21:41;;;;;;;1.35;1.08;;;;;;;;;;4546703;28;20650;-66
2021/11/22 05:23:54;;;;;;;1.10;1.00;;;;;;;;;;4546806;28;20079;-66
2021/11/22 05:26:04;;;;;;;2.33;1.13;;;;;;;;;;4536973;28;20037;-66
2021/11/22 05:28:15;;;;;;;0.90;0.87;;;;;;;;;;4554765;28;20036;-66
2021/11/22 05:30:26;;;;;;;1.50;0.83;;;;;;;;;;4546856;28;20025;-66
2021/11/22 05:32:36;;;;;;;1.27;0.80;;;;;;;;;;4546920;28;20139;-66
2021/11/22 05:34:50;;;;;;;1.30;0.90;;;;;;;;;;4545601;28;20041;-66
2021/11/22 05:37:01;;;;;;;1.85;0.80;;;;;;;;;;4543499;28;20172;-66
2021/11/22 05:39:11;;;;;;;1.00;0.90;;;;;;;;;;4546128;28;20055;-66
2021/11/22 05:41:22;;;;;;;0.87;0.83;;;;;;;;;;4546665;28;20041;-65
2021/11/22 05:43:35;;;;;;;1.00;0.80;;;;;;;;;;4545209;28;20124;-66
2021/11/22 05:45:45;;;;;;;0.80;0.80;;;;;;;;;;4546050;28;20074;-66
2021/11/22 05:47:56;;;;;;;1.13;0.90;;;;;;;;;;4545807;28;20116;-66
2021/11/22 05:50:07;;;;;;;1.07;0.90;;;;;;;;;;4545260;28;20040;-66
2021/11/22 05:52:18;;;;;;;1.25;0.80;;;;;;;;;;4542502;28;20029;-66
2021/11/22 05:54:31;;;;;;;1.67;0.88;;;;;;;;;;4544488;28;20028;-66
2021/11/22 05:56:43;;;;;;;1.48;0.90;;;;;;;;;;4545954;28;20045;-65
2021/11/22 05:58:53;;;;;;;;;;;;;;;;;;4543051;28;20029;-66
2021/11/22 06:01:05;;;;;;;0.80;0.80;;;;;;;;;;4543967;28;19920;-66
2021/11/22 06:03:16;;;;;;;0.82;0.80;;;;;;;;;;4546998;28;20036;-65
2021/11/22 06:05:26;;;;;;;0.80;0.80;;;;;;;;;;4546812;28;20511;-67
2021/11/22 06:07:38;;;;;;;1.60;0.83;;;;;;;;;;4541031;28;20067;-66
2021/11/22 06:09:49;;;;;;;1.40;0.93;;;;;;;;;;4544498;28;20037;-66
2021/11/22 06:11:59;;;;;;;1.13;0.80;;;;;;;;;;4546829;28;20041;-66
2021/11/22 06:14:10;;;;;;;0.90;0.87;;;;;;;;;;4545796;28;20029;-66
2021/11/22 06:16:20;;;;;;;1.77;0.87;;;;;;;;;;4545103;28;20067;-66
2021/11/22 06:18:31;;;;;;;0.80;0.80;;;;;;;;;;4546493;28;20025;-67
2021/11/22 06:20:41;;;;;;;0.83;0.80;;;;;;;;;;4545093;28;20048;-66
2021/11/22 06:22:52;;;;;;;0.83;0.83;;;;;;;;;;4543588;28;20033;-66
2021/11/22 06:25:03;;;;;;;0.80;0.80;;;;;;;;;;4546847;28;20401;-66
2021/11/22 06:27:14;;;;;;;1.13;0.80;;;;;;;;;;4544142;28;20132;-66
2021/11/22 06:29:25;;;;;;;1.33;0.90;;;;;;;;;;4547300;28;20558;-66
2021/11/22 06:31:36;;;;;;;1.48;1.10;;;;;;;;;;4546463;28;20067;-66
2021/11/22 06:33:46;;;;;;;1.30;1.20;;;;;;;;;;4542572;28;20071;-66
2021/11/22 06:35:57;;;;;;;1.30;1.10;;;;;;;;;;4544018;28;22520;-66
2021/11/22 06:38:07;;;;;;;1.30;1.10;;;;;;;;;;4545148;28;20187;-66
2021/11/22 06:40:19;;;;;;;2.17;0.90;;;;;;;;;;4544918;28;20025;-66
2021/11/22 06:42:29;;;;;;;1.27;0.98;;;;;;;;;;4544820;28;20036;-65
2021/11/22 06:44:40;;;;;;;1.10;0.87;;;;;;;;;;4553217;28;20571;-65
2021/11/22 06:46:50;;;;;;;1.07;0.90;;;;;;;;;;4543733;28;20040;-66
2021/11/22 06:49:01;;;;;;;1.40;0.87;;;;;;;;;;4544565;28;20072;-65
2021/11/22 06:51:11;;;;;;;1.70;0.90;;;;;;;;;;4546283;28;20025;-66
2021/11/22 06:53:22;;;;;;;1.13;0.90;;;;;;;;;;4545389;28;20041;-66
2021/11/22 06:55:33;;;;;;;1.67;0.90;;;;;;;;;;4547282;28;20051;-66
2021/11/22 06:57:43;;;;;;;2.20;1.00;;;;;;;;;;4545156;28;20154;-66
2021/11/22 06:59:53;;;;;;;1.27;0.90;;;;;;;;;;4546245;28;25170;-66
2021/11/22 07:02:04;;;;;;;1.10;1.00;;;;;;;;;;4545527;28;20124;-66
2021/11/22 07:04:14;;;;;;;0.80;0.80;;;;;;;;;;4544038;28;20590;-66
2021/11/22 07:06:25;;;;;;;1.43;1.00;;;;;;;;;;4544652;28;20119;-66
2021/11/22 07:08:35;;;;;;;0.80;0.80;;;;;;;;;;4544297;28;20516;-65
2021/11/22 07:10:46;;;;;;;2.27;0.80;;;;;;;;;;4545204;28;20088;-65
2021/11/22 07:12:56;;;;;;;1.00;0.90;;;;;;;;;;4543804;28;20067;-66
2021/11/22 07:15:08;;;;;;;0.80;0.80;;;;;;;;;;4543305;28;20413;-65
2021/11/22 07:17:19;;;;;;;0.70;0.70;;;;;;;;;;4544772;28;20029;-66
2021/11/22 07:19:30;;;;;;;1.00;0.80;;;;;;;;;;4542222;28;20593;-66
2021/11/22 07:21:40;;;;;;;1.48;0.80;;;;;;;;;;4545091;28;20053;-66
2021/11/22 07:23:51;;;;;;;1.20;0.87;;;;;;;;;;4544415;28;20041;-66
2021/11/22 07:26:02;;;;;;;2.95;0.90;;;;;;;;;;4543711;28;20198;-66
2021/11/22 07:28:13;;;;;;;1.50;0.75;;;;;;;;;;4552384;28;20037;-65
2021/11/22 07:30:23;;;;;;;2.40;1.07;;;;;;;;;;4542350;28;20638;-65
2021/11/22 07:32:34;;;;;;;1.87;1.73;;;;;;;;;;4543671;28;20083;-65
2021/11/22 07:34:44;;;;;;;1.00;0.70;;;;;;;;;;4541338;28;20184;-65
2021/11/22 07:36:55;;;;;;;1.03;0.93;;;;;;;;;;4545798;28;20041;-66
2021/11/22 07:39:05;;;;;;;1.63;0.80;;;;;;;;;;4543399;28;20025;-66
2021/11/22 07:41:17;;;;;;;0.80;0.67;;;;;;;;;;4543660;28;20068;-64
2021/11/22 07:43:27;;;;;;;3.22;1.25;;;;;;;;;;4543780;28;21667;-64
2021/11/22 07:45:38;;;;;;;2.13;1.33;;;;;;;;;;4543953;28;32099;-64
2021/11/22 07:47:49;;;;;;;1.30;1.00;;;;;;;;;;4544207;28;20025;-65
2021/11/22 07:50:00;;;;;;;1.17;0.93;;;;;;;;;;4545296;28;20827;-65
2021/11/22 07:52:10;;;;;;;1.90;1.10;;;;;;;;;;4547141;28;26392;-65
2021/11/22 07:54:21;;;;;;;1.43;1.00;;;;;;;;;;4548138;28;20041;-65
2021/11/22 07:56:31;;;;;;;0.97;0.80;;;;;;;;;;4545372;28;20488;-65
2021/11/22 07:58:42;;;;;;;1.10;0.80;;;;;;;;;;4547819;28;29276;-65
2021/11/22 08:00:53;;;;;;;1.73;1.00;;;;;;;;;;4546053;28;20052;-65
2021/11/22 08:03:03;;;;;;;1.00;0.90;;;;;;;;;;4546271;28;20044;-64
2021/11/22 08:05:14;;;;;;;1.10;1.00;;;;;;;;;;4546273;28;21223;-66
2021/11/22 08:07:24;;;;;;;1.00;0.90;;;;;;;;;;4546262;28;20726;-66
2021/11/22 08:09:42;;;;;;;1.30;1.10;;;;;;;;;;4530373;28;20581;-66
2021/11/22 08:14:20;;;;;;;1.67;0.90;;;;;;;;;;4544714;28;20655;-66
2021/11/22 08:16:30;;;;;;;1.23;1.00;;;;;;;;;;4547087;28;20583;-66
2021/11/22 08:18:41;;;;;;;2.13;1.40;;;;;;;;;;4545122;28;20049;-66
2021/11/22 08:20:51;;;;;;;2.00;1.30;;;;;;;;;;4545594;28;20124;-66
2021/11/22 08:23:02;;;;;;;1.93;1.30;;;;;;;;;;4544892;28;20024;-66
2021/11/22 08:25:13;;;;;;;1.30;1.10;;;;;;;;;;4544542;28;20059;-67
2021/11/22 08:27:28;;;;;;;1.75;1.15;;;;;;;;;;4546668;28;20033;-66
2021/11/22 08:29:38;;;;;;;1.20;1.10;;;;;;;;;;4544930;28;21071;-66
2021/11/22 08:31:48;;;;;;;3.63;1.30;;;;;;;;;;4546534;28;20546;-66
2021/11/22 08:33:59;;;;;;;1.30;1.10;;;;;;;;;;4546280;28;20056;-67
2021/11/22 08:36:09;;;;;;;1.80;1.17;;;;;;;;;;4546541;28;26517;-67
2021/11/22 08:38:20;;;;;;;1.30;1.00;;;;;;;;;;4545219;28;20136;-67
2021/11/22 08:40:31;;;;;;;1.20;1.10;;;;;;;;;;4546781;28;20044;-66
2021/11/22 08:42:41;;;;;;;1.25;1.13;;;;;;;;;;4551592;28;20029;-67
2021/11/22 08:44:52;;;;;;;1.20;1.00;;;;;;;;;;4544872;28;20337;-67
2021/11/22 08:47:03;;;;;;;1.40;1.10;;;;;;;;;;4538204;28;20083;-67
2021/11/22 08:49:15;;;;;;;1.27;1.00;;;;;;;;;;4548869;28;20032;-66
2021/11/22 08:51:25;;;;;;;1.10;1.00;;;;;;;;;;4527783;28;20046;-67
2021/11/22 08:53:36;;;;;;;2.10;1.10;;;;;;;;;;4548061;28;20341;-67
2021/11/22 08:55:46;;;;;;;1.03;1.00;;;;;;;;;;4550694;28;20480;-67
2021/11/22 08:57:57;;;;;;;1.30;1.10;;;;;;;;;;4551331;28;20029;-67
2021/11/22 09:00:10;;;;;;;1.37;1.10;;;;;;;;;;4547639;28;20058;-66
2021/11/22 09:02:21;;;;;;;1.15;1.00;;;;;;;;;;4546817;28;20605;-70
2021/11/22 09:04:32;;;;;;;;;;;;;;;;;;4548049;28;20032;-69
2021/11/22 09:06:42;;;;;;;2.08;1.40;;;;;;;;;;4548940;28;19927;-70
2021/11/22 09:08:53;;;;;;;1.77;1.10;;;;;;;;;;4548144;28;20105;-70
2021/11/22 09:11:03;;;;;;;1.00;0.93;;;;;;;;;;4545080;28;20025;-72
2021/11/22 09:13:15;;;;;;;1.57;1.20;;;;;;;;;;4546553;28;20071;-69
2021/11/22 09:15:25;;;;;;;1.67;1.30;;;;;;;;;;4546304;28;20040;-69
2021/11/22 09:17:36;;;;;;;1.23;1.13;;;;;;;;;;4544922;28;20951;-68
2021/11/22 09:19:46;;;;;;;1.20;1.10;;;;;;;;;;4544798;28;20040;-70
2021/11/22 09:21:57;;;;;;;1.73;1.20;;;;;;;;;;4545098;28;20152;-66
2021/11/22 09:24:08;;;;;;;1.13;0.97;;;;;;;;;;4553768;28;20028;-66
2021/11/22 09:26:19;;;;;;;1.27;1.13;;;;;;;;;;4544800;28;20045;-66
2021/11/22 09:28:30;;;;;;;1.77;1.00;;;;;;;;;;4544655;28;21611;-65
2021/11/22 09:30:40;;;;;;;1.10;1.00;;;;;;;;;;4543264;28;20045;-66
2021/11/22 09:32:50;;;;;;;1.63;1.00;;;;;;;;;;4544169;28;20024;-66
2021/11/22 09:35:01;;;;;;;1.10;1.00;;;;;;;;;;4544026;28;20072;-65
2021/11/22 09:37:12;;;;;;;1.10;1.00;;;;;;;;;;4544062;28;20037;-65
2021/11/22 09:39:23;;;;;;;1.47;1.00;;;;;;;;;;4543350;28;20059;-66
2021/11/22 09:41:33;;;;;;;1.97;1.07;;;;;;;;;;4543684;28;20037;-65
2021/11/22 09:43:45;;;;;;;1.10;1.00;;;;;;;;;;4553078;28;20036;-66
2021/11/22 09:45:57;;;;;;;1.25;1.00;;;;;;;;;;4539377;28;20770;-66
2021/11/22 09:48:07;;;;;;;;;;;;;;;;;;4546214;28;20045;-66
2021/11/22 09:50:19;;;;;;;1.45;1.10;;;;;;;;;;4544053;28;20407;-66
2021/11/22 09:52:30;;;;;;;1.65;1.00;;;;;;;;;;4544679;28;20029;-65
2021/11/22 09:54:42;;;;;;;1.23;0.90;;;;;;;;;;4543807;28;20048;-65
2021/11/22 09:56:53;;;;;;;1.08;0.98;;;;;;;;;;4546160;28;20037;-66
2021/11/22 09:59:04;;;;;;;1.07;0.97;;;;;;;;;;4544144;28;20037;-65
2021/11/22 10:01:15;;;;;;;1.15;1.00;;;;;;;;;;4542418;28;20487;-66
2021/11/22 10:03:26;;;;;;;0.70;0.70;;;;;;;;;;4544064;28;20029;-66
2021/11/22 10:05:38;;;;;;;1.50;0.90;;;;;;;;;;4544720;28;28750;-65
2021/11/22 10:08:12;;;;;;;1.67;0.90;;;;;;;;;;4544436;28;20037;-66
2021/11/22 10:10:22;;;;;;;0.80;0.80;;;;;;;;;;4542163;28;20025;-66
2021/11/22 10:12:33;;;;;;;0.93;0.80;;;;;;;;;;4544370;28;20041;-66
2021/11/22 10:14:46;;;;;;;0.80;0.70;;;;;;;;;;4546359;28;20116;-65
2021/11/22 10:16:57;;;;;;;1.10;0.80;;;;;;;;;;4545682;28;20568;-66
2021/11/22 10:19:08;;;;;;;1.27;0.75;;;;;;;;;;4544603;28;20032;-66
2021/11/22 10:21:35;;;;;;;0.70;0.70;;;;;;;;;;4543406;28;20045;-65
2021/11/22 10:23:48;;;;;;;0.70;0.70;;;;;;;;;;4543278;28;20216;-66
2021/11/22 10:25:59;;;;;;;1.23;0.75;;;;;;;;;;4552063;28;20032;-66
2021/11/22 10:28:18;;;;;;;1.33;0.80;;;;;;;;;;4547153;28;20412;-67
2021/11/22 10:30:30;;;;;;;0.70;0.65;;;;;;;;;;4541423;28;21236;-66
2021/11/22 10:32:41;;;;;;;0.63;0.63;;;;;;;;;;4540630;28;20067;-66
2021/11/22 10:34:51;;;;;;;0.80;0.70;;;;;;;;;;4542030;28;21044;-66
2021/11/22 10:37:06;;;;;;;1.57;0.90;;;;;;;;;;4545454;28;20044;-66
2021/11/22 10:39:19;;;;;;;0.90;0.60;;;;;;;;;;4553626;28;20760;-66
2021/11/22 10:41:33;;;;;;;1.05;0.63;;;;;;;;;;4544739;28;20121;-66
2021/11/22 10:43:52;;;;;;;0.70;0.70;;;;;;;;;;4543819;28;20119;-66
2021/11/22 10:46:08;;;;;;;1.25;0.80;;;;;;;;;;4547214;28;20779;-66
2021/11/22 10:48:28;;;;;;;1.17;0.70;;;;;;;;;;4542450;28;20025;-66
2021/11/22 10:50:47;;;;;;;1.02;0.70;;;;;;;;;;4552250;28;20043;-65
2021/11/22 10:53:02;;;;;;;0.70;0.65;;;;;;;;;;4543661;28;20029;-66
2021/11/22 10:55:12;;;;;;;1.15;1.00;;;;;;;;;;4542230;28;20029;-66
2021/11/22 10:57:41;;;;;;;2.10;0.70;;;;;;;;;;4542065;28;20568;-65
2021/11/22 10:59:52;;;;;;;0.98;0.90;;;;;;;;;;4544451;28;20567;-62
2021/11/22 11:02:02;;;;;;;0.93;0.77;;;;;;;;;;4544053;28;20044;-71
2021/11/22 11:04:14;;;;;;;1.83;1.17;;;;;;;;;;4546747;28;20029;-71
2021/11/22 11:06:43;;;;;;;1.23;0.80;;;;;;;;;;4546789;28;20139;-71
2021/11/22 11:08:55;;;;;;;1.27;0.80;;;;;;;;;;4543858;28;20044;-71
2021/11/22 11:11:09;;;;;;;;;;;;;;;;;;4546303;28;20067;-71
2021/11/22 11:13:19;;;;;;;0.95;0.70;;;;;;;;;;4545501;28;19920;-71
2021/11/22 11:15:30;;;;;;;1.47;0.70;;;;;;;;;;4542294;28;26202;-72
2021/11/22 11:17:41;;;;;;;0.53;0.53;;;;;;;;;;4544692;28;20036;-71
2021/11/22 11:19:56;;;;;;;1.33;0.77;;;;;;;;;;4529136;28;20896;-72
2021/11/22 11:22:06;;;;;;;0.50;0.50;;;;;;;;;;4542485;28;20053;-71
2021/11/22 11:24:18;;;;;;;0.40;0.40;;;;;;;;;;4552134;28;20060;-71
2021/11/22 11:26:28;;;;;;;0.57;0.50;;;;;;;;;;4544007;28;20043;-71
2021/11/22 11:28:39;;;;;;;0.40;0.40;;;;;;;;;;4545654;28;20039;-71
2021/11/22 11:30:49;;;;;;;1.60;0.60;;;;;;;;;;4543387;28;20803;-70
2021/11/22 11:33:03;;;;;;;0.50;0.50;;;;;;;;;;4544911;28;20105;-70
2021/11/22 11:35:18;;;;;;;1.15;0.50;;;;;;;;;;4541716;28;20502;-70
2021/11/22 11:37:55;;;;;;;0.55;0.55;;;;;;;;;;4545882;28;20560;-70
2021/11/22 11:40:06;;;;;;;0.70;0.60;;;;;;;;;;4545447;28;20029;-70
2021/11/22 11:42:28;;;;;;;0.50;0.50;;;;;;;;;;4543472;28;20481;-70
2021/11/22 11:44:52;;;;;;;0.70;0.68;;;;;;;;;;4544434;28;20040;-70
2021/11/22 11:47:24;;;;;;;0.73;0.73;;;;;;;;;;4544849;28;20037;-70
2021/11/22 11:49:35;;;;;;;0.52;0.50;;;;;;;;;;4545350;28;20635;-70
2021/11/22 11:51:47;;;;;;;0.52;0.52;;;;;;;;;;4542268;28;20041;-71
2021/11/22 11:54:02;;;;;;;0.73;0.68;;;;;;;;;;4543329;28;20039;-69
2021/11/22 11:56:14;;;;;;;1.42;0.80;;;;;;;;;;4544884;28;20033;-70
2021/11/22 11:58:26;;;;;;;0.70;0.70;;;;;;;;;;4530395;28;20041;-71
2021/11/22 12:00:59;;;;;;;1.40;0.80;;;;;;;;;;4542942;28;20089;-70
2021/11/22 12:03:09;;;;;;;0.50;0.50;;;;;;;;;;4544173;28;20060;-71
2021/11/22 12:05:20;;;;;;;1.63;0.70;;;;;;;;;;4543460;28;20044;-71
2021/11/22 12:07:35;;;;;;;0.60;0.60;;;;;;;;;;4552052;28;32898;-70
2021/11/22 12:09:46;;;;;;;0.75;0.68;;;;;;;;;;4545486;28;20068;-71
2021/11/22 12:12:02;;;;;;;1.00;0.70;;;;;;;;;;4544624;28;20441;-71
2021/11/22 12:14:12;;;;;;;0.82;0.80;;;;;;;;;;4546768;28;20033;-70
2021/11/22 12:16:42;;;;;;;0.80;0.80;;;;;;;;;;4545750;28;20036;-70
2021/11/22 12:18:53;;;;;;;0.93;0.70;;;;;;;;;;4544461;28;20040;-70
2021/11/22 12:21:03;;;;;;;2.00;1.00;;;;;;;;;;4543289;28;20400;-71
2021/11/22 12:23:17;;;;;;;0.93;0.77;;;;;;;;;;4543741;28;20048;-71
2021/11/22 12:25:43;;;;;;;1.00;0.90;;;;;;;;;;4551648;28;20035;-70
2021/11/22 12:27:53;;;;;;;0.90;0.68;;;;;;;;;;4544452;28;20301;-70
2021/11/22 12:30:28;;;;;;;1.27;0.90;;;;;;;;;;4543995;28;24003;-70
2021/11/22 12:32:39;;;;;;;1.00;0.80;;;;;;;;;;4542114;28;20103;-70
2021/11/22 12:34:55;;;;;;;1.20;0.80;;;;;;;;;;4545117;28;20087;-71
2021/11/22 12:37:27;;;;;;;0.70;0.70;;;;;;;;;;4549188;28;20029;-71
2021/11/22 12:39:43;;;;;;;0.77;0.65;;;;;;;;;;4547371;28;20120;-71
2021/11/22 12:42:13;;;;;;;1.05;0.80;;;;;;;;;;4546693;28;20033;-71
2021/11/22 12:44:30;;;;;;;1.00;0.77;;;;;;;;;;4546747;28;20040;-71
2021/11/22 12:46:47;;;;;;;1.10;0.60;;;;;;;;;;4547213;28;20029;-71
2021/11/22 12:48:57;;;;;;;1.17;0.80;;;;;;;;;;4547155;28;20946;-71
2021/11/22 12:51:10;;;;;;;1.13;0.80;;;;;;;;;;4544895;28;20025;-70
2021/11/22 12:53:21;;;;;;;0.73;0.73;;;;;;;;;;4538831;28;20039;-71
2021/11/22 12:55:37;;;;;;;1.07;0.97;;;;;;;;;;4545003;28;20130;-70
2021/11/22 12:57:50;;;;;;;0.90;0.80;;;;;;;;;;4538944;28;20037;-71
2021/11/22 13:00:37;;;;;;;1.00;0.77;;;;;;;;;;4547151;28;20563;-70
2021/11/22 13:03:08;;;;;;;1.98;0.80;;;;;;;;;;4532070;28;20060;-71
2021/11/22 13:05:44;;;;;;;3.05;1.05;;;;;;;;;;4547055;28;20139;-70
2021/11/22 13:07:54;;;;;;;1.73;0.75;;;;;;;;;;4545251;28;20357;-70
2021/11/22 13:10:10;;;;;;;1.57;1.10;;;;;;;;;;4547787;28;20116;-71
2021/11/22 13:12:36;;;;;;;0.85;0.60;;;;;;;;;;4538921;28;20052;-71
2021/11/22 13:14:50;;;;;;;0.65;0.60;;;;;;;;;;4550470;28;20071;-71
2021/11/22 13:17:00;;;;;;;0.73;0.50;;;;;;;;;;4555316;28;20024;-71
2021/11/22 13:19:12;;;;;;;0.80;0.60;;;;;;;;;;4547611;28;20094;-70
2021/11/22 13:21:25;;;;;;;0.70;0.60;;;;;;;;;;4546645;28;20595;-71